Time;durP1;ratioP1;P1;durP2;ratioP2;P2;SDS_P1;SDS_P2;PMS_P1;PMS_P2;Temp;Humidity;BMP_temperature;BMP_pressure;BME280_temperature;BME280_humidity;BME280_pressure;Samples;Min_cycle;Max_cycle;Signal;HPM_P1;HPM_P2
2022/02/08 00:01:17;;;;;;;8.03;3.23;;;1.00;96.90;;;;;;5097862;28;20491;-42
2022/02/08 00:03:43;;;;;;;5.47;2.80;;;1.00;96.80;;;;;;5096806;28;20439;-45
2022/02/08 00:08:49;;;;;;;8.63;2.90;;;1.00;96.70;;;;;;5096765;28;20707;-45
2022/02/08 00:11:15;;;;;;;4.23;2.40;;;1.00;96.70;;;;;;5097847;28;20419;-45
2022/02/08 00:13:40;;;;;;;11.97;2.60;;;1.10;96.70;;;;;;5097631;28;20193;-45
2022/02/08 00:16:06;;;;;;;6.90;2.10;;;1.10;96.70;;;;;;5097739;28;20462;-43
2022/02/08 00:18:32;;;;;;;4.93;2.77;;;1.10;96.60;;;;;;5088085;28;20598;-45
2022/02/08 00:20:57;;;;;;;6.03;2.77;;;1.10;96.60;;;;;;5086335;28;20176;-45
2022/02/08 00:23:23;;;;;;;9.73;2.80;;;1.10;96.60;;;;;;5087423;28;20557;-45
2022/02/08 00:25:48;;;;;;;4.43;2.10;;;1.20;96.60;;;;;;5094596;28;20217;-43
2022/02/08 00:28:16;;;;;;;6.67;2.93;;;1.20;96.60;;;;;;5097617;28;20281;-43
2022/02/08 00:30:42;;;;;;;6.90;2.87;;;1.20;96.50;;;;;;5098259;28;20433;-43
2022/02/08 00:33:07;;;;;;;9.00;2.83;;;1.30;96.60;;;;;;5096102;28;20427;-43
2022/02/08 00:35:33;;;;;;;9.20;3.20;;;1.30;96.60;;;;;;5096289;28;20701;-43
2022/02/08 00:37:58;;;;;;;7.07;3.77;;;1.30;96.60;;;;;;5096341;28;20459;-43
2022/02/08 00:40:26;;;;;;;7.77;3.13;;;1.30;96.70;;;;;;5097356;28;20181;-44
2022/02/08 00:42:52;;;;;;;6.30;3.00;;;1.30;96.70;;;;;;5097327;28;20172;-44
2022/02/08 00:48:16;;;;;;;6.10;3.00;;;1.30;96.40;;;;;;5095528;28;20299;-44
2022/02/08 00:50:48;;;;;;;7.00;3.40;;;1.30;96.60;;;;;;5097960;28;20423;-44
2022/02/08 00:53:14;;;;;;;11.77;2.90;;;1.30;96.50;;;;;;5093442;28;20430;-44
2022/02/08 00:55:40;;;;;;;6.17;2.77;;;1.30;96.40;;;;;;5097431;28;20407;-43
2022/02/08 00:58:05;;;;;;;7.60;2.57;;;1.30;96.40;;;;;;5097591;28;20183;-44
2022/02/08 01:00:31;;;;;;;4.80;2.90;;;1.30;96.50;;;;;;5097979;28;20330;-44
2022/02/08 01:02:58;;;;;;;5.70;3.60;;;1.30;96.50;;;;;;5095361;28;20583;-43
2022/02/08 01:05:23;;;;;;;5.80;3.00;;;1.30;96.50;;;;;;5095766;28;20490;-43
2022/02/08 01:07:49;;;;;;;8.30;2.53;;;1.30;96.50;;;;;;5095518;28;20463;-43
2022/02/08 01:10:18;;;;;;;4.80;2.33;;;1.40;96.40;;;;;;5094537;28;20427;-44
2022/02/08 01:12:45;;;;;;;5.43;2.30;;;1.40;96.20;;;;;;5095019;28;20414;-43
2022/02/08 01:15:13;;;;;;;5.77;2.40;;;1.40;96.20;;;;;;5094126;28;20429;-44
2022/02/08 01:17:39;;;;;;;5.00;2.73;;;1.40;96.10;;;;;;5096387;28;20792;-44
2022/02/08 01:20:13;;;;;;;7.10;3.20;;;1.40;96.20;;;;;;5096484;28;20519;-43
2022/02/08 01:22:41;;;;;;;6.20;3.20;;;1.40;96.20;;;;;;5097501;28;20176;-43
2022/02/08 01:25:09;;;;;;;5.50;2.77;;;1.40;96.20;;;;;;5096730;28;20423;-43
2022/02/08 01:27:43;;;;;;;4.30;2.53;;;1.30;96.20;;;;;;5097737;28;20474;-44
2022/02/08 01:30:16;;;;;;;6.30;2.40;;;1.30;96.30;;;;;;5097976;28;20438;-44
2022/02/08 01:33:14;;;;;;;5.67;2.80;;;1.40;96.30;;;;;;5101557;28;20427;-44
2022/02/08 01:38:11;;;;;;;6.03;2.60;;;1.30;96.30;;;;;;5100461;28;20437;-43
2022/02/08 01:48:58;;;;;;;7.30;2.57;;;1.30;96.50;;;;;;5080893;28;20411;-43
2022/02/08 01:51:24;;;;;;;8.57;2.53;;;1.40;96.50;;;;;;5100415;28;20419;-44
2022/02/08 01:53:49;;;;;;;5.20;1.90;;;1.40;96.40;;;;;;5100704;28;20410;-42
2022/02/08 01:56:15;;;;;;;8.43;2.60;;;1.40;96.20;;;;;;5099432;28;20172;-44
2022/02/08 01:58:41;;;;;;;8.27;2.60;;;1.40;95.70;;;;;;5099880;28;20505;-44
2022/02/08 02:01:08;;;;;;;7.70;2.83;;;1.40;96.10;;;;;;5100436;28;20313;-44
2022/02/08 02:03:35;;;;;;;8.43;2.37;;;1.40;95.60;;;;;;5099652;28;20179;-44
2022/02/08 02:06:01;;;;;;;6.50;2.33;;;1.50;95.50;;;;;;5100705;28;20403;-44
2022/02/08 02:08:27;;;;;;;6.80;2.00;;;1.60;95.30;;;;;;5100681;28;20477;-44
2022/02/08 02:10:53;;;;;;;6.40;2.50;;;1.60;95.20;;;;;;5100509;28;20442;-44
2022/02/08 02:14:04;;;;;;;6.70;1.90;;;1.60;95.00;;;;;;5100579;28;20422;-42
2022/02/08 02:16:06;;;;;;;8.43;3.30;;;1.60;94.90;;;;;;5093106;28;20588;-44
2022/02/08 02:18:32;;;;;;;4.07;2.33;;;1.70;94.80;;;;;;5100564;28;20583;-44
2022/02/08 02:20:58;;;;;;;6.03;2.13;;;1.80;94.60;;;;;;5099963;28;20908;-44
2022/02/08 02:23:24;;;;;;;5.13;2.23;;;1.80;94.50;;;;;;5120249;27;20472;-44
2022/02/08 02:25:50;;;;;;;5.97;2.00;;;1.80;94.60;;;;;;5140368;27;20237;-44
2022/02/08 02:28:15;;;;;;;4.80;2.20;;;1.90;94.40;;;;;;5139278;27;20484;-44
2022/02/08 02:31:03;;;;;;;8.00;2.80;;;1.80;94.40;;;;;;5140451;27;20419;-43
2022/02/08 02:33:28;;;;;;;8.97;2.70;;;1.90;94.40;;;;;;5138037;27;20263;-44
2022/02/08 02:35:56;;;;;;;10.00;2.50;;;1.90;94.20;;;;;;5121002;27;20500;-44
2022/02/08 02:38:24;;;;;;;6.30;2.30;;;1.90;94.10;;;;;;5137740;27;20256;-44
2022/02/08 02:40:50;;;;;;;8.93;3.10;;;2.00;94.10;;;;;;5139437;27;20425;-44
2022/02/08 02:43:16;;;;;;;5.30;2.07;;;1.90;94.10;;;;;;5138203;27;20421;-44
2022/02/08 02:45:41;;;;;;;5.63;2.23;;;1.90;94.30;;;;;;5140033;27;20449;-44
2022/02/08 02:48:07;;;;;;;7.57;2.23;;;1.90;94.30;;;;;;5138498;27;20883;-44
2022/02/08 02:50:33;;;;;;;5.80;2.40;;;1.90;94.20;;;;;;5122181;27;20175;-44
2022/02/08 02:52:59;;;;;;;7.27;2.47;;;1.80;94.20;;;;;;5139485;27;20421;-44
2022/02/08 02:55:27;;;;;;;8.60;2.30;;;1.90;94.20;;;;;;5121911;27;20423;-44
2022/02/08 02:57:54;;;;;;;4.30;2.00;;;1.90;94.30;;;;;;5139588;27;20187;-44
2022/02/08 03:00:43;;;;;;;12.07;2.83;;;1.90;94.20;;;;;;5140802;27;20404;-44
2022/02/08 03:17:33;;;;;;;6.87;2.20;;;1.90;94.20;;;;;;5140875;27;20418;-44
2022/02/08 03:19:33;;;;;;;10.73;2.17;;;1.90;94.20;;;;;;5139873;27;20516;-44
2022/02/08 03:21:58;;;;;;;7.83;2.73;;;1.90;94.20;;;;;;5139421;27;20504;-45
2022/02/08 03:24:24;;;;;;;8.77;2.33;;;1.80;94.30;;;;;;5139283;27;20176;-43
2022/02/08 03:26:50;;;;;;;4.20;1.70;;;1.80;94.30;;;;;;5140088;27;20223;-44
2022/02/08 03:29:15;;;;;;;8.00;2.00;;;1.70;94.50;;;;;;5139070;27;20179;-44
2022/02/08 03:31:41;;;;;;;7.30;2.10;;;1.60;94.60;;;;;;5139770;27;20175;-44
2022/02/08 03:34:06;;;;;;;7.63;1.77;;;1.60;94.90;;;;;;5138722;27;20183;-44
2022/02/08 03:36:32;;;;;;;8.50;2.50;;;1.60;94.70;;;;;;5139553;27;20272;-43
2022/02/08 03:39:35;;;;;;;6.50;2.40;;;1.60;94.70;;;;;;5138591;27;20184;-44
2022/02/08 03:41:54;;;;;;;6.93;2.07;;;1.60;94.70;;;;;;5135207;27;20612;-44
2022/02/08 03:44:29;;;;;;;9.23;2.50;;;1.60;94.70;;;;;;5138539;27;20578;-44
2022/02/08 03:46:55;;;;;;;9.57;2.77;;;1.60;94.60;;;;;;5139766;27;20471;-44
2022/02/08 03:49:20;;;;;;;5.83;2.37;;;1.60;94.60;;;;;;5138103;27;20422;-44
2022/02/08 03:51:50;;;;;;;7.90;2.03;;;1.60;94.60;;;;;;5139063;27;20619;-44
2022/02/08 03:54:17;;;;;;;4.50;1.80;;;1.50;94.60;;;;;;5138554;27;20557;-44
2022/02/08 03:56:43;;;;;;;8.57;2.80;;;1.50;94.70;;;;;;5139196;27;20421;-44
2022/02/08 03:59:09;;;;;;;7.40;2.27;;;1.50;94.60;;;;;;5137401;27;20514;-44
2022/02/08 04:06:29;;;;;;;9.97;2.90;;;1.40;95.00;;;;;;5120028;27;20502;-44
2022/02/08 04:08:57;;;;;;;7.07;2.20;;;1.60;95.50;;;;;;5136515;27;20845;-44
2022/02/08 04:11:23;;;;;;;7.10;2.27;;;1.60;94.80;;;;;;5137156;27;20538;-44
2022/02/08 04:13:57;;;;;;;4.30;2.50;;;1.60;94.80;;;;;;5135501;27;20436;-44
2022/02/08 04:16:32;;;;;;;6.13;1.90;;;1.60;94.80;;;;;;5137485;27;20168;-44
2022/02/08 04:32:58;;;;;;;7.40;2.23;;;1.80;94.30;;;;;;5138603;27;20408;-42
2022/02/08 04:35:47;;;;;;;5.20;2.23;;;1.80;94.60;;;;;;5137931;28;20420;-43
2022/02/08 04:40:56;;;;;;;7.13;2.60;;;1.80;94.30;;;;;;5136752;27;20614;-43
2022/02/08 04:43:29;;;;;;;10.60;2.23;;;1.80;94.20;;;;;;5137445;27;20412;-42
2022/02/08 04:46:05;;;;;;;6.00;2.17;;;1.80;94.20;;;;;;5136785;28;20528;-43
2022/02/08 04:48:49;;;;;;;6.60;2.30;;;1.80;94.20;;;;;;5137274;28;20460;-43
2022/02/08 04:51:21;;;;;;;4.73;3.07;;;1.80;94.50;;;;;;5136409;28;20413;-43
2022/02/08 04:53:55;;;;;;;7.93;2.30;;;1.70;94.20;;;;;;5137669;27;20417;-43
2022/02/08 04:56:35;;;;;;;7.03;1.93;;;1.70;94.30;;;;;;5137505;28;20425;-42
2022/02/08 04:59:33;;;;;;;8.73;2.00;;;1.70;94.30;;;;;;5136160;27;20409;-42
2022/02/08 05:34:07;;;;;;;9.53;2.10;;;1.90;94.50;;;;;;5139304;27;20416;-46
2022/02/08 05:43:02;;;;;;;5.60;2.40;;;2.10;94.60;;;;;;5139134;27;20435;-46
2022/02/08 05:45:33;;;;;;;10.93;2.77;;;2.10;94.70;;;;;;5140184;27;20409;-46
2022/02/08 05:48:02;;;;;;;7.90;1.93;;;2.10;94.70;;;;;;5137532;27;20507;-46
2022/02/08 05:55:30;;;;;;;8.10;2.33;;;2.20;94.60;;;;;;5139473;27;20467;-47
2022/02/08 05:57:57;;;;;;;7.60;2.20;;;2.20;94.60;;;;;;5138439;27;20446;-46
2022/02/08 06:00:26;;;;;;;13.60;3.00;;;2.20;94.70;;;;;;5140205;27;20409;-47
2022/02/08 06:02:55;;;;;;;5.03;2.30;;;2.20;94.60;;;;;;5138703;27;20525;-47
2022/02/08 06:05:24;;;;;;;10.90;3.20;;;2.20;94.60;;;;;;5139755;27;20413;-47
2022/02/08 06:07:49;;;;;;;6.23;1.80;;;2.20;94.60;;;;;;5137061;27;20507;-47
2022/02/08 06:10:15;;;;;;;6.57;2.20;;;2.20;94.80;;;;;;5137702;27;20459;-46
2022/02/08 06:12:51;;;;;;;10.60;2.43;;;2.10;94.70;;;;;;5135314;27;20187;-46
2022/02/08 06:15:20;;;;;;;8.50;2.50;;;2.20;94.70;;;;;;5134839;27;20171;-46
2022/02/08 06:17:46;;;;;;;5.80;1.97;;;2.20;94.60;;;;;;5134625;27;20715;-46
2022/02/08 06:20:12;;;;;;;7.40;1.97;;;2.20;94.70;;;;;;5137071;27;20421;-46
2022/02/08 06:22:40;;;;;;;7.30;2.73;;;2.20;94.70;;;;;;5137767;27;20526;-47
2022/02/08 06:25:09;;;;;;;5.13;2.10;;;2.20;94.60;;;;;;5135416;27;20192;-47
2022/02/08 06:27:35;;;;;;;9.00;1.97;;;2.20;94.50;;;;;;5129654;27;20472;-46
2022/02/08 06:30:00;;;;;;;6.13;2.30;;;2.20;94.50;;;;;;5140236;27;20856;-46
2022/02/08 06:32:31;;;;;;;8.37;2.70;;;2.20;94.60;;;;;;5137879;27;20553;-47
2022/02/08 06:34:58;;;;;;;6.43;2.53;;;2.20;94.40;;;;;;5137999;27;20802;-46
2022/02/08 06:37:26;;;;;;;5.13;1.93;;;2.30;94.30;;;;;;5136310;27;20512;-46
2022/02/08 06:39:52;;;;;;;10.33;2.70;;;2.30;94.20;;;;;;5137696;27;20401;-46
2022/02/08 06:42:17;;;;;;;6.20;2.20;;;2.40;94.10;;;;;;5119066;27;20453;-46
2022/02/08 06:44:43;;;;;;;10.30;2.20;;;2.40;93.80;;;;;;5137931;27;20456;-46
2022/02/08 06:47:09;;;;;;;6.23;2.50;;;2.50;93.70;;;;;;5135867;27;20210;-46
2022/02/08 06:49:35;;;;;;;6.37;1.90;;;2.60;93.50;;;;;;5137086;27;20176;-47
2022/02/08 06:52:00;;;;;;;6.30;2.63;;;2.60;93.60;;;;;;5136257;27;20400;-46
2022/02/08 06:54:26;;;;;;;9.03;2.03;;;2.60;93.50;;;;;;5136575;27;20179;-46
2022/02/08 06:56:52;;;;;;;8.97;2.43;;;2.70;93.40;;;;;;5136590;27;20239;-47
2022/02/08 06:59:19;;;;;;;5.70;2.00;;;2.70;93.40;;;;;;5134934;27;20212;-46
2022/02/08 07:01:45;;;;;;;5.23;1.90;;;2.70;93.30;;;;;;5136339;27;20573;-47
2022/02/08 07:04:14;;;;;;;7.60;2.37;;;2.70;93.20;;;;;;5134800;27;20448;-46
2022/02/08 07:06:44;;;;;;;7.67;2.10;;;2.70;93.30;;;;;;5136593;27;20460;-47
2022/02/08 07:09:11;;;;;;;10.70;2.40;;;2.70;93.30;;;;;;5136156;27;20816;-46
2022/02/08 07:11:36;;;;;;;8.60;2.80;;;2.70;93.20;;;;;;5137651;27;20420;-46
2022/02/08 07:14:04;;;;;;;9.07;2.37;;;2.80;93.20;;;;;;5136993;27;20687;-46
2022/02/08 07:16:30;;;;;;;6.37;2.27;;;2.80;93.30;;;;;;5135872;27;20198;-46
2022/02/08 07:18:55;;;;;;;9.17;3.30;;;2.80;93.10;;;;;;5138607;27;20815;-46
2022/02/08 07:21:21;;;;;;;4.97;2.10;;;2.90;93.00;;;;;;5119257;27;20195;-46
2022/02/08 07:23:47;;;;;;;5.30;1.80;;;3.00;92.90;;;;;;5138711;27;20226;-47
2022/02/08 07:26:12;;;;;;;7.70;2.30;;;3.10;92.70;;;;;;5137616;27;20214;-47
2022/02/08 07:28:41;;;;;;;10.93;2.77;;;3.10;92.70;;;;;;5137242;27;20193;-47
2022/02/08 07:31:19;;;;;;;6.20;2.73;;;3.00;92.80;;;;;;5136746;27;20266;-47
2022/02/08 07:33:59;;;;;;;10.10;2.17;;;3.10;92.70;;;;;;5136183;27;20684;-47
2022/02/08 07:36:46;;;;;;;4.50;2.10;;;3.10;92.50;;;;;;5137239;27;20435;-47
2022/02/08 07:39:23;;;;;;;5.93;1.90;;;3.10;92.60;;;;;;5135151;27;20433;-47
2022/02/08 07:41:48;;;;;;;11.20;2.23;;;3.00;92.60;;;;;;5137335;27;20795;-47
2022/02/08 07:44:14;;;;;;;9.10;2.43;;;3.10;92.80;;;;;;5136160;27;21173;-47
2022/02/08 07:46:40;;;;;;;8.27;2.60;;;3.10;92.70;;;;;;5136888;27;20219;-47
2022/02/08 07:49:06;;;;;;;6.57;2.23;;;3.20;92.60;;;;;;5135161;27;20172;-47
2022/02/08 07:51:34;;;;;;;5.53;2.40;;;3.20;92.50;;;;;;5136650;27;20581;-47
2022/02/08 07:54:00;;;;;;;4.77;2.20;;;3.30;92.40;;;;;;5135847;27;20508;-47
2022/02/08 07:56:26;;;;;;;7.00;2.97;;;3.40;92.40;;;;;;5137939;27;20463;-47
2022/02/08 07:58:52;;;;;;;6.40;2.90;;;3.30;92.30;;;;;;5137301;27;20525;-47
2022/02/08 08:01:18;;;;;;;6.83;2.10;;;3.40;92.20;;;;;;5120272;27;20566;-47
2022/02/08 08:03:44;;;;;;;7.23;2.23;;;3.50;92.00;;;;;;5119041;27;20429;-47
2022/02/08 08:06:11;;;;;;;6.83;2.17;;;3.60;91.90;;;;;;5138731;27;20172;-43
2022/02/08 08:08:37;;;;;;;4.43;2.20;;;3.80;92.40;;;;;;5135588;27;20276;-39
2022/02/08 08:11:08;;;;;;;8.30;1.70;;;4.00;91.50;;;;;;5136875;27;20444;-38
2022/02/08 08:13:39;;;;;;;6.60;2.33;;;3.90;91.00;;;;;;5117923;27;20441;-38
2022/02/08 08:16:15;;;;;;;4.70;2.20;;;3.90;91.00;;;;;;5138036;27;20724;-38
2022/02/08 08:21:26;;;;;;;10.30;2.57;;;4.00;91.10;;;;;;5134973;27;20456;-40
2022/02/08 08:23:52;;;;;;;13.60;3.10;;;4.20;91.00;;;;;;5134419;27;20567;-39
2022/02/08 08:26:18;;;;;;;8.13;2.20;;;4.40;90.40;;;;;;5136930;27;20460;-40
2022/02/08 08:28:44;;;;;;;9.50;3.13;;;4.20;89.90;;;;;;5136945;27;20716;-40
2022/02/08 08:31:10;;;;;;;5.70;2.70;;;4.30;90.10;;;;;;5133926;27;20448;-39
2022/02/08 08:33:36;;;;;;;9.60;2.30;;;4.50;90.00;;;;;;5136114;27;20436;-39
2022/02/08 08:36:02;;;;;;;5.83;2.10;;;4.60;89.50;;;;;;5135975;27;20236;-39
2022/02/08 08:38:30;;;;;;;5.50;1.70;;;4.50;88.80;;;;;;5136605;27;20187;-40
2022/02/08 08:48:44;;;;;;;4.63;2.03;;;8.00;78.40;;;;;;5116353;28;20460;-39
2022/02/08 08:53:46;;;;;;;5.40;1.90;;;9.00;70.70;;;;;;5133600;27;20717;-38
2022/02/08 08:56:12;;;;;;;4.90;2.07;;;9.50;68.80;;;;;;5118872;28;20405;-37
2022/02/08 08:58:43;;;;;;;4.60;2.47;;;10.60;66.40;;;;;;5135367;27;20439;-41
2022/02/08 09:01:12;;;;;;;7.90;2.53;;;11.70;60.30;;;;;;5135382;27;20485;-39
2022/02/08 09:03:38;;;;;;;8.57;2.70;;;11.70;58.50;;;;;;5133617;27;20424;-41
2022/02/08 09:06:06;;;;;;;5.90;2.23;;;12.60;57.40;;;;;;5134773;27;20419;-41
2022/02/08 09:08:35;;;;;;;6.37;2.93;;;13.20;55.00;;;;;;5135773;27;20790;-39
2022/02/08 09:11:10;;;;;;;8.03;2.20;;;12.70;53.10;;;;;;5135053;27;20428;-39
2022/02/08 09:13:46;;;;;;;8.00;1.87;;;11.90;52.40;;;;;;5137447;27;20649;-39
2022/02/08 09:27:03;;;;;;;5.50;2.30;;;11.70;54.10;;;;;;5137354;28;20475;-39
2022/02/08 09:29:44;;;;;;;7.63;2.20;;;12.20;53.90;;;;;;5136761;27;20465;-39
2022/02/08 09:32:28;;;;;;;7.83;2.10;;;11.80;53.50;;;;;;5136220;28;20468;-39
2022/02/08 09:34:54;;;;;;;4.87;2.20;;;11.90;53.60;;;;;;5137242;27;20436;-39
2022/02/08 09:37:19;;;;;;;8.97;2.40;;;12.50;52.50;;;;;;5138312;28;20413;-39
2022/02/08 09:39:49;;;;;;;5.33;2.30;;;13.10;52.10;;;;;;5136965;27;20176;-38
2022/02/08 09:42:15;;;;;;;5.70;1.80;;;13.10;50.60;;;;;;5137095;27;20176;-39
2022/02/08 09:44:41;;;;;;;4.00;1.90;;;13.30;51.10;;;;;;5135781;27;20443;-41
2022/02/08 09:47:12;;;;;;;5.63;2.70;;;13.80;49.70;;;;;;5135906;27;20459;-39
2022/02/08 09:49:42;;;;;;;5.07;1.97;;;13.40;49.40;;;;;;5133510;27;20421;-39
2022/02/08 09:52:08;;;;;;;4.93;2.17;;;13.30;49.70;;;;;;5139398;27;20421;-42
2022/02/08 09:54:34;;;;;;;5.87;2.00;;;13.80;49.40;;;;;;5137854;27;20436;-40
2022/02/08 09:57:00;;;;;;;5.50;1.90;;;14.50;48.90;;;;;;5139115;27;20415;-39
2022/02/08 09:59:26;;;;;;;5.57;2.10;;;14.90;46.90;;;;;;5138172;27;20854;-40
2022/02/08 10:01:53;;;;;;;5.60;1.80;;;14.80;46.60;;;;;;5137946;27;20423;-40
2022/02/08 10:04:19;;;;;;;5.17;2.23;;;14.80;45.90;;;;;;5136646;27;20424;-40
2022/02/08 10:06:44;;;;;;;5.17;1.70;;;15.00;46.30;;;;;;5139386;27;20448;-42
2022/02/08 10:09:10;;;;;;;5.67;2.03;;;15.50;45.40;;;;;;5138299;27;20186;-40
2022/02/08 10:14:25;;;;;;;8.20;2.43;;;15.50;45.80;;;;;;5136144;27;20159;-40
2022/02/08 10:22:13;;;;;;;6.00;2.00;;;15.70;46.70;;;;;;5134720;27;20849;-42
2022/02/08 10:24:50;;;;;;;7.00;2.07;;;17.10;45.90;;;;;;5133069;27;20601;-41
2022/02/08 10:27:27;;;;;;;5.43;2.07;;;18.50;47.60;;;;;;5136110;27;20294;-42
2022/02/08 10:38:13;;;;;;;4.30;1.80;;;22.20;42.40;;;;;;5139349;27;20408;-45
2022/02/08 10:40:39;;;;;;;5.60;2.60;;;23.30;41.10;;;;;;5137671;27;20426;-41
2022/02/08 10:43:09;;;;;;;6.50;2.63;;;24.10;39.70;;;;;;5138186;27;20263;-42
2022/02/08 10:45:37;;;;;;;4.77;2.40;;;24.90;38.40;;;;;;5136387;27;20806;-40
2022/02/08 10:48:06;;;;;;;4.43;1.93;;;25.70;37.80;;;;;;5138669;27;20561;-42
2022/02/08 10:50:37;;;;;;;3.73;1.90;;;26.50;36.10;;;;;;5119351;27;20609;-45
2022/02/08 10:53:06;;;;;;;11.53;2.30;;;27.20;35.40;;;;;;5139123;27;20469;-47
2022/02/08 10:55:41;;;;;;;5.87;2.17;;;27.80;34.90;;;;;;5138711;27;20470;-43
2022/02/08 11:03:23;;;;;;;3.33;1.90;;;29.60;31.00;;;;;;5119367;27;20515;-45
2022/02/08 11:11:41;;;;;;;4.60;2.37;;;32.40;29.20;;;;;;5133452;27;20413;-42
2022/02/08 11:17:37;;;;;;;7.93;1.50;;;32.10;29.90;;;;;;5137756;27;20453;-41
2022/02/08 11:24:56;;;;;;;4.23;2.10;;;32.70;28.90;;;;;;5117699;27;20404;-41
2022/02/08 11:27:22;;;;;;;3.00;1.70;;;32.80;28.50;;;;;;5137784;27;20388;-40
2022/02/08 11:30:19;;;;;;;6.57;2.63;;;32.40;28.70;;;;;;5136847;27;20426;-40
2022/02/08 11:44:10;;;;;;;3.93;1.80;;;32.00;28.80;;;;;;5117767;28;20430;-40
2022/02/08 11:54:25;;;;;;;2.17;1.30;;;27.70;31.50;;;;;;5114387;28;20391;-42
2022/02/08 12:07:53;;;;;;;3.20;1.57;;;25.80;33.80;;;;;;5136208;27;20474;-41
2022/02/08 12:13:09;;;;;;;2.37;1.20;;;25.60;33.60;;;;;;5135346;27;20438;-38
2022/02/08 14:01:42;;;;;;;3.10;1.50;;;21.20;38.80;;;;;;5140129;27;20479;-42
2022/02/08 14:09:28;;;;;;;4.23;1.80;;;21.40;38.90;;;;;;5140212;27;20236;-40
2022/02/08 14:12:31;;;;;;;3.93;1.60;;;21.80;38.70;;;;;;5138757;27;20176;-40
2022/02/08 14:17:58;;;;;;;2.57;1.50;;;22.80;37.80;;;;;;5139341;27;20481;-43
2022/02/08 14:20:46;;;;;;;4.93;1.97;;;22.50;37.80;;;;;;5121187;27;20433;-42
2022/02/08 15:09:31;;;;;;;5.20;1.90;;;15.70;44.40;;;;;;5116037;28;20466;-39
2022/02/08 15:12:10;;;;;;;4.07;2.30;;;15.40;44.60;;;;;;5115693;28;20549;-39
2022/02/08 15:14:44;;;;;;;4.57;2.10;;;15.10;45.00;;;;;;5116357;28;20414;-40
2022/02/08 15:17:10;;;;;;;4.03;1.80;;;14.80;45.30;;;;;;5114880;28;20469;-40
2022/02/08 15:19:38;;;;;;;6.67;2.10;;;14.60;45.60;;;;;;5113600;28;20411;-40
2022/02/08 15:22:05;;;;;;;4.43;1.70;;;14.40;46.00;;;;;;5114136;28;20168;-39
2022/02/08 15:24:37;;;;;;;2.73;1.63;;;14.30;46.30;;;;;;5115522;28;20442;-40
2022/02/08 15:27:03;;;;;;;4.30;2.27;;;14.10;46.70;;;;;;5114747;28;20607;-40
2022/02/08 15:29:31;;;;;;;5.10;1.50;;;13.90;46.90;;;;;;5116195;28;20430;-41
2022/02/08 15:31:57;;;;;;;3.67;1.57;;;13.70;47.20;;;;;;5113475;28;20463;-39
2022/02/08 15:34:23;;;;;;;4.90;2.03;;;13.60;47.60;;;;;;5115197;28;20430;-39
2022/02/08 15:36:49;;;;;;;5.43;1.50;;;13.50;47.90;;;;;;5114770;28;20181;-39
2022/02/08 15:39:15;;;;;;;5.07;1.90;;;13.30;48.20;;;;;;5113131;28;20428;-39
2022/02/08 15:41:41;;;;;;;5.70;1.53;;;13.20;48.50;;;;;;5114194;28;20409;-39
2022/02/08 15:44:14;;;;;;;6.67;1.50;;;13.10;48.80;;;;;;5114523;28;20498;-41
2022/02/08 15:46:41;;;;;;;3.57;1.73;;;13.00;49.10;;;;;;5116453;28;20573;-38
2022/02/08 15:49:06;;;;;;;6.53;2.00;;;12.90;49.30;;;;;;5114513;28;20440;-39
2022/02/08 15:51:45;;;;;;;4.33;1.80;;;12.80;49.60;;;;;;5101751;28;20436;-40
2022/02/08 15:54:33;;;;;;;5.93;3.23;;;12.70;49.90;;;;;;5112159;28;20693;-40
2022/02/08 16:05:56;;;;;;;5.33;3.67;;;12.30;51.40;;;;;;5114207;28;20426;-39
2022/02/08 16:07:58;;;;;;;5.47;3.13;;;12.10;51.80;;;;;;5105464;28;20967;-40
2022/02/08 16:10:34;;;;;;;8.70;3.10;;;12.10;52.30;;;;;;5115601;28;20978;-40
2022/02/08 16:18:23;;;;;;;4.93;2.30;;;11.80;53.60;;;;;;5112765;28;20514;-40
2022/02/08 16:21:11;;;;;;;5.27;2.50;;;11.70;54.00;;;;;;5114735;28;20164;-42
2022/02/08 16:53:49;;;;;;;4.10;1.93;;;11.10;63.10;;;;;;5115104;28;20410;-41
2022/02/08 16:59:00;;;;;;;4.43;2.20;;;10.90;64.70;;;;;;5082992;28;20429;-41
2022/02/08 17:01:28;;;;;;;4.80;3.10;;;10.90;65.70;;;;;;5119283;28;20428;-40
2022/02/08 17:03:55;;;;;;;6.33;2.70;;;10.90;66.60;;;;;;5102074;28;20557;-42
2022/02/08 17:06:26;;;;;;;4.53;3.30;;;10.80;67.30;;;;;;5098393;28;20528;-44
2022/02/08 17:09:07;;;;;;;6.23;3.33;;;10.80;68.30;;;;;;5118867;28;20402;-45
2022/02/08 17:11:44;;;;;;;6.20;3.27;;;10.80;69.00;;;;;;5099486;28;20428;-45
2022/02/08 17:46:35;;;;;;;6.90;1.30;;;10.30;78.10;;;;;;5118604;28;20421;-44
2022/02/08 17:49:01;;;;;;;4.73;1.77;;;11.00;92.90;;;;;;5122304;27;20460;-44
2022/02/08 17:51:28;;;;;;;4.23;2.30;;;11.60;93.60;;;;;;5137162;27;20843;-44
2022/02/08 17:53:53;;;;;;;3.33;1.60;;;12.20;92.60;;;;;;5103640;27;20442;-45
2022/02/08 17:56:19;;;;;;;3.80;2.20;;;12.60;91.50;;;;;;5134865;27;20760;-45
2022/02/08 17:58:45;;;;;;;3.20;1.70;;;12.80;89.70;;;;;;5118177;27;20557;-45
2022/02/08 18:01:11;;;;;;;4.53;1.93;;;12.80;83.90;;;;;;5135758;27;20187;-45
2022/02/08 18:03:37;;;;;;;4.27;2.00;;;12.70;81.10;;;;;;5139013;27;20953;-44
2022/02/08 18:06:03;;;;;;;3.13;2.10;;;12.40;79.60;;;;;;5137329;27;20187;-45
2022/02/08 18:08:29;;;;;;;6.30;2.47;;;12.20;78.70;;;;;;5138702;27;20517;-44
2022/02/08 18:10:56;;;;;;;6.67;2.50;;;11.90;78.70;;;;;;5133877;27;20437;-44
2022/02/08 18:13:24;;;;;;;4.93;2.50;;;11.70;79.00;;;;;;5136484;27;20172;-45
2022/02/08 18:15:50;;;;;;;2.97;2.30;;;11.50;79.20;;;;;;5116968;27;20525;-45
2022/02/08 18:18:28;;;;;;;6.90;2.87;;;11.30;79.40;;;;;;5136803;27;20903;-45
2022/02/08 18:21:03;;;;;;;10.70;2.57;;;11.20;80.40;;;;;;5136869;27;20751;-45
2022/02/08 19:09:45;;;;;;;8.27;7.40;;;10.30;83.40;;;;;;5138606;27;20416;-45
2022/02/08 19:18:14;;;;;;;8.90;4.43;;;10.20;83.80;;;;;;5137308;27;20466;-45
2022/02/08 19:20:41;;;;;;;4.80;3.80;;;10.20;83.90;;;;;;5138102;27;20431;-44
2022/02/08 19:23:07;;;;;;;4.27;3.10;;;10.20;84.10;;;;;;5136172;27;20891;-45
2022/02/08 19:25:33;;;;;;;5.00;2.67;;;10.10;84.20;;;;;;5136388;27;20456;-45
2022/02/08 19:28:01;;;;;;;6.30;3.50;;;10.10;84.40;;;;;;5136186;27;20239;-44
2022/02/08 19:30:26;;;;;;;3.97;2.67;;;10.00;84.40;;;;;;5119508;27;20178;-45
2022/02/08 19:32:52;;;;;;;5.67;3.00;;;10.00;84.60;;;;;;5136163;27;20413;-45
2022/02/08 19:35:18;;;;;;;7.07;2.93;;;10.00;84.70;;;;;;5136171;27;20486;-44
2022/02/08 19:37:46;;;;;;;5.07;3.10;;;10.00;84.80;;;;;;5136504;27;20292;-45
2022/02/08 19:40:12;;;;;;;10.47;3.50;;;10.00;85.00;;;;;;5117638;27;20571;-53
2022/02/08 19:42:40;;;;;;;7.40;3.40;;;9.90;86.40;;;;;;5137804;27;20423;-44
2022/02/08 19:45:22;;;;;;;5.10;3.30;;;9.90;86.40;;;;;;5119452;27;20427;-45
2022/02/08 19:47:51;;;;;;;4.83;3.30;;;9.90;86.70;;;;;;5138202;27;20414;-45
2022/02/08 19:50:18;;;;;;;4.90;3.20;;;9.90;86.80;;;;;;5136800;27;20413;-46
2022/02/08 19:52:45;;;;;;;4.63;3.60;;;9.90;86.90;;;;;;5102163;27;20461;-45
2022/02/08 19:57:52;;;;;;;6.13;3.60;;;9.90;87.10;;;;;;5119793;27;20817;-46
2022/02/08 20:00:24;;;;;;;4.50;3.63;;;9.90;87.10;;;;;;5136719;27;20481;-46
2022/02/08 20:02:54;;;;;;;5.90;3.90;;;9.90;87.20;;;;;;5137299;27;20859;-46
2022/02/08 20:05:27;;;;;;;4.60;3.30;;;9.90;87.30;;;;;;5136243;27;20413;-45
2022/02/08 20:07:54;;;;;;;6.23;4.07;;;9.90;87.30;;;;;;5137304;27;20785;-46
2022/02/08 20:10:22;;;;;;;7.90;4.53;;;9.80;87.30;;;;;;5135387;27;20512;-45
2022/02/08 20:12:50;;;;;;;4.73;4.23;;;9.80;87.50;;;;;;5137066;27;20711;-45
2022/02/08 20:15:20;;;;;;;5.90;4.40;;;9.80;87.60;;;;;;5137228;27;20458;-45
2022/02/08 20:17:50;;;;;;;6.10;4.47;;;9.80;87.80;;;;;;5120267;27;20448;-45
2022/02/08 20:20:16;;;;;;;4.60;4.00;;;9.80;87.80;;;;;;5136712;27;20465;-45
2022/02/08 20:22:47;;;;;;;5.73;4.63;;;9.80;87.90;;;;;;5138010;27;20488;-45
2022/02/08 20:25:14;;;;;;;6.67;4.63;;;9.80;88.00;;;;;;5136821;27;20425;-45
2022/02/08 20:27:51;;;;;;;6.43;4.13;;;9.80;88.00;;;;;;5118567;27;20989;-45
2022/02/08 20:30:25;;;;;;;5.50;4.07;;;9.80;88.00;;;;;;5136590;27;20432;-45
2022/02/08 20:32:52;;;;;;;8.33;4.97;;;9.80;88.10;;;;;;5137891;27;20409;-45
2022/02/08 20:35:20;;;;;;;7.63;5.17;;;9.80;88.20;;;;;;5136442;27;20425;-43
2022/02/08 20:37:47;;;;;;;8.03;4.80;;;9.80;88.40;;;;;;5137508;27;20449;-44
2022/02/08 20:40:13;;;;;;;7.10;5.03;;;9.80;88.40;;;;;;5134772;27;20433;-44
2022/02/08 20:42:39;;;;;;;7.77;5.77;;;9.80;88.60;;;;;;5134672;27;20971;-43
2022/02/08 20:45:06;;;;;;;6.83;5.57;;;9.70;88.50;;;;;;5133957;27;20442;-44
2022/02/08 20:47:34;;;;;;;6.33;2.43;;;9.70;88.50;;;;;;5136088;27;20420;-43
2022/02/08 20:50:11;;;;;;;6.80;2.77;;;9.90;93.40;;;;;;5135878;28;20696;-44
2022/02/08 20:53:35;;;;;;;5.10;3.17;;;10.30;95.70;;;;;;5137968;27;20435;-44
2022/02/08 20:55:43;;;;;;;4.67;3.03;;;10.90;95.90;;;;;;5128526;27;20427;-42
2022/02/08 20:58:38;;;;;;;5.17;3.20;;;11.50;94.90;;;;;;5121397;28;20752;-44
2022/02/08 21:01:04;;;;;;;6.87;4.00;;;12.00;93.80;;;;;;5138671;27;20492;-44
2022/02/08 21:03:40;;;;;;;6.33;4.37;;;12.40;92.30;;;;;;5136233;27;20524;-44
2022/02/08 21:06:13;;;;;;;10.13;4.70;;;12.40;89.50;;;;;;5119096;27;20599;-44